createdAt,value
2018-12-02T05:15:35.855Z,6.40
2018-12-02T05:18:31.450Z,6.00
2018-12-02T05:21:00.333Z,5.90
2018-12-02T05:23:29.195Z,5.90
2018-12-02T05:25:58.083Z,5.90
2018-12-02T05:28:27.092Z,5.80
2018-12-02T05:30:55.902Z,5.90
2018-12-02T05:33:35.305Z,6.00
2018-12-02T05:38:56.124Z,6.00
2018-12-02T05:41:31.232Z,6.50
2018-12-02T05:44:00.366Z,6.60
2018-12-02T05:46:29.477Z,6.40
2018-12-02T05:48:58.677Z,6.60
2018-12-02T05:51:27.509Z,6.60
2018-12-02T05:53:56.402Z,6.40
2018-12-02T05:56:25.290Z,6.30
2018-12-02T05:58:54.139Z,6.50
2018-12-02T06:01:22.970Z,6.50
2018-12-02T06:03:51.807Z,6.40
2018-12-02T06:06:20.630Z,6.30
2018-12-02T06:08:53.236Z,6.30
2018-12-02T06:11:28.851Z,6.10
2018-12-02T06:14:04.318Z,6.30
2018-12-02T06:16:33.200Z,6.20
2018-12-02T06:19:02.108Z,6.10
2018-12-02T06:21:34.465Z,6.20
2018-12-02T06:24:03.329Z,6.20
2018-12-02T06:44:18.479Z,6.40
2018-12-02T06:46:57.573Z,6.60
2018-12-02T06:49:26.681Z,6.70
2018-12-02T06:51:55.386Z,6.60
2018-12-02T06:54:27.105Z,6.60
2018-12-02T06:56:58.547Z,6.80
2018-12-02T07:03:43.147Z,7.00
2018-12-02T07:06:12.085Z,7.10
2018-12-02T07:08:40.857Z,7.20
2018-12-02T07:11:10.711Z,7.00
2018-12-02T07:14:59.372Z,6.90
2018-12-02T07:17:34.374Z,6.90
2018-12-02T07:20:27.098Z,6.90
2018-12-02T07:57:51.257Z,6.80
2018-12-02T08:00:20.607Z,6.50
2018-12-02T08:02:49.424Z,6.50
2018-12-02T08:05:18.481Z,6.50
2018-12-02T10:21:42.875Z,8.20
2018-12-02T10:24:11.667Z,8.30
2018-12-02T10:26:40.561Z,8.20
2018-12-02T10:29:09.436Z,8.10
2018-12-02T10:31:38.135Z,8.10
2018-12-02T10:34:07.307Z,8.10
2018-12-02T10:36:42.409Z,8.40
2018-12-02T10:39:11.376Z,8.40
2018-12-02T10:41:43.875Z,8.50
2018-12-02T10:44:12.886Z,8.50
2018-12-02T10:46:43.914Z,8.60
2018-12-02T10:49:10.496Z,8.60
2018-12-02T10:51:46.150Z,8.70
2018-12-02T10:54:14.975Z,8.50
2018-12-02T10:56:44.138Z,8.30
2018-12-02T10:59:13.130Z,8.40
2018-12-02T11:01:42.372Z,8.40
2018-12-02T11:04:23.359Z,8.30
2018-12-02T11:06:51.957Z,8.30
2018-12-02T11:25:45.103Z,8.60
2018-12-02T12:20:27.084Z,8.90
2018-12-02T12:25:44.418Z,8.80
2018-12-02T12:28:19.633Z,8.90
2018-12-02T12:30:50.975Z,8.80
2018-12-02T12:58:53.496Z,8.60
2018-12-02T13:01:22.293Z,8.60
2018-12-02T13:03:51.242Z,8.50
2018-12-02T13:06:21.157Z,8.30
2018-12-02T13:11:42.400Z,8.20
2018-12-02T13:14:11.218Z,8.30
2018-12-02T13:23:57.734Z,8.30
2018-12-02T13:26:27.146Z,8.50
2018-12-02T13:29:10.782Z,8.50
2018-12-02T13:38:17.518Z,8.10
2018-12-02T13:50:20.963Z,8.10
2018-12-02T13:55:45.823Z,8.30
2018-12-02T14:47:10.799Z,8.00
2018-12-02T14:50:06.751Z,7.90
2018-12-02T16:29:15.063Z,8.00
2018-12-02T16:31:55.818Z,7.90
2018-12-02T16:35:01.560Z,7.80
2018-12-02T17:39:27.891Z,7.60
2018-12-02T17:42:14.705Z,7.60
2018-12-02T17:45:03.615Z,7.60
2018-12-02T17:47:43.092Z,7.70
2018-12-02T17:50:43.062Z,7.70
2018-12-02T17:53:21.938Z,7.70
2018-12-02T17:56:14.161Z,7.70
2018-12-02T17:59:10.548Z,7.70
2018-12-02T18:02:01.312Z,7.70
2018-12-02T18:04:53.489Z,7.80
2018-12-02T18:07:35.210Z,7.80
2018-12-02T18:10:11.818Z,7.90
2018-12-02T18:12:47.807Z,7.90
2018-12-02T18:15:21.339Z,7.90
2018-12-02T18:17:52.141Z,8.00
2018-12-02T18:20:34.179Z,7.90
2018-12-02T18:23:09.550Z,8.00
2018-12-02T18:25:44.739Z,7.90
2018-12-02T18:28:35.710Z,7.90
2018-12-02T18:31:25.472Z,8.00
2018-12-02T18:36:54.255Z,8.00
2018-12-02T18:39:32.609Z,8.00
2018-12-02T18:45:10.413Z,8.20
2018-12-02T18:48:11.421Z,8.10
2018-12-02T19:47:01.130Z,8.20
2018-12-02T19:49:30.531Z,10.00
2018-12-02T19:51:59.824Z,10.20
2018-12-02T19:54:28.511Z,10.20
2018-12-02T19:56:57.469Z,10.30
2018-12-02T19:59:27.246Z,10.30
2018-12-02T20:01:56.321Z,10.40
2018-12-02T20:04:25.519Z,10.40
2018-12-02T20:06:54.995Z,10.40
2018-12-02T20:09:24.747Z,10.30
2018-12-02T20:11:59.913Z,10.30
2018-12-02T20:14:30.171Z,10.40
2018-12-02T20:16:59.097Z,10.30
2018-12-02T20:19:34.147Z,10.30
2018-12-02T20:22:08.853Z,10.50
2018-12-02T20:24:40.403Z,10.30
2018-12-02T20:27:14.147Z,10.20
2018-12-02T20:29:44.072Z,10.40
2018-12-02T20:32:17.761Z,10.20
2018-12-02T20:34:47.083Z,10.30
2018-12-02T20:37:15.983Z,10.30
2018-12-02T20:39:44.756Z,10.40
2018-12-02T20:45:04.845Z,10.50
2018-12-02T20:47:34.131Z,10.50
2018-12-02T20:50:02.823Z,10.50
2018-12-02T21:10:08.063Z,10.60
2018-12-02T21:12:40.143Z,10.60
2018-12-02T21:15:22.062Z,10.70
2018-12-02T21:17:52.994Z,10.80
2018-12-02T21:20:24.187Z,10.70
2018-12-02T21:22:53.061Z,10.80
2018-12-02T21:25:26.722Z,10.70
2018-12-02T21:27:57.519Z,10.60
2018-12-02T21:30:29.458Z,10.70
2018-12-02T21:32:59.645Z,10.80
2018-12-02T21:35:29.978Z,10.80
2018-12-02T21:37:58.999Z,10.90
2018-12-02T21:40:27.626Z,11.00
2018-12-02T21:43:01.087Z,11.00
2018-12-02T21:48:23.158Z,11.00
2018-12-02T21:50:57.099Z,11.10
2018-12-02T21:53:26.488Z,11.20
2018-12-02T21:55:57.137Z,11.20
2018-12-02T21:58:27.424Z,11.20
2018-12-02T22:03:59.916Z,11.10
2018-12-02T22:06:28.764Z,11.10
2018-12-02T22:08:57.664Z,11.20
2018-12-02T22:11:26.833Z,11.10
2018-12-02T22:13:55.727Z,11.10
2018-12-02T22:16:24.386Z,11.00
2018-12-02T22:18:53.318Z,10.80
2018-12-02T22:21:22.397Z,10.70
2018-12-02T22:23:51.165Z,10.60
2018-12-02T23:27:57.373Z,10.10
2018-12-02T23:34:26.433Z,10.10
2018-12-02T23:36:55.341Z,10.00
2018-12-02T23:39:26.057Z,10.00
2018-12-02T23:42:10.983Z,10.00
2018-12-02T23:45:01.618Z,9.90
2018-12-02T23:47:35.050Z,10.00
2018-12-02T23:50:11.623Z,10.10
2018-12-02T23:52:43.271Z,10.30
2018-12-02T23:55:13.826Z,10.40
2018-12-02T23:57:42.937Z,10.50
